Time;durP1;ratioP1;P1;durP2;ratioP2;P2;SDS_P1;SDS_P2;PMS_P1;PMS_P2;Temp;Humidity;BMP_temperature;BMP_pressure;BME280_temperature;BME280_humidity;BME280_pressure;Samples;Min_cycle;Max_cycle;Signal;HPM_P1;HPM_P2
2022/07/26 00:01:57;;;;;;;11.50;10.60;;;;;;;24.53;45.90;94733.38;5022009;28;20207;-68
2022/07/26 00:04:22;;;;;;;11.05;10.02;;;;;;;24.47;46.15;94724.44;5024914;28;20206;-68
2022/07/26 00:06:48;;;;;;;11.43;10.43;;;;;;;24.34;46.39;94725.53;5028925;28;20226;-68
2022/07/26 00:09:13;;;;;;;11.07;10.20;;;;;;;24.19;46.73;94736.88;5028447;28;20214;-68
2022/07/26 00:11:39;;;;;;;12.20;11.10;;;;;;;24.13;47.06;94731.63;5030386;28;21454;-68
2022/07/26 00:14:07;;;;;;;11.48;10.48;;;;;;;24.09;47.04;94725.94;5041982;28;20263;-68
2022/07/26 00:16:33;;;;;;;10.98;10.15;;;;;;;24.15;47.17;94724.97;5040501;28;20197;-68
2022/07/26 00:18:59;;;;;;;11.73;10.90;;;;;;;24.07;47.46;94728.06;5041406;28;20221;-68
2022/07/26 00:21:24;;;;;;;11.23;10.43;;;;;;;24.05;47.24;94732.03;5042721;28;20237;-68
2022/07/26 00:23:50;;;;;;;12.20;11.20;;;;;;;24.02;47.69;94730.66;5044097;28;20225;-68
2022/07/26 00:26:16;;;;;;;11.90;10.98;;;;;;;24.01;47.20;94722.84;5046643;28;20258;-68
2022/07/26 00:28:42;;;;;;;13.02;12.07;;;;;;;24.09;47.30;94723.25;5044436;28;20233;-68
2022/07/26 00:31:08;;;;;;;11.75;10.77;;;;;;;24.15;47.07;94722.28;5041140;28;20735;-67
2022/07/26 00:33:33;;;;;;;11.32;10.52;;;;;;;23.99;47.47;94720.41;5044068;28;20222;-67
2022/07/26 00:35:59;;;;;;;12.05;11.15;;;;;;;23.91;48.06;94720.78;5042190;28;20220;-67
2022/07/26 00:38:24;;;;;;;11.60;10.70;;;;;;;23.81;47.89;94720.63;5041456;28;20240;-68
2022/07/26 00:40:50;;;;;;;12.00;11.10;;;;;;;23.77;48.06;94728.34;5045255;28;20205;-65
2022/07/26 00:43:15;;;;;;;11.70;10.77;;;;;;;23.71;48.15;94719.38;5041350;28;20312;-67
2022/07/26 00:45:41;;;;;;;11.95;10.98;;;;;;;23.69;48.40;94718.78;5041736;28;20509;-67
2022/07/26 00:48:06;;;;;;;12.23;11.20;;;;;;;23.70;48.61;94720.41;5042216;28;20217;-67
2022/07/26 00:50:32;;;;;;;12.30;11.20;;;;;;;23.64;48.55;94715.19;5041365;28;20229;-68
2022/07/26 00:52:57;;;;;;;11.00;10.20;;;;;;;23.60;48.63;94717.50;5042648;28;20266;-68
2022/07/26 00:55:23;;;;;;;11.77;10.88;;;;;;;23.62;48.92;94717.28;5040986;28;20221;-68
2022/07/26 00:57:49;;;;;;;11.60;10.70;;;;;;;23.47;49.33;94720.47;5040222;28;20255;-68
2022/07/26 01:00:22;;;;;;;11.88;10.98;;;;;;;23.40;49.45;94728.69;5045956;28;20229;-69
2022/07/26 01:02:48;;;;;;;12.65;11.65;;;;;;;23.39;49.77;94724.38;5042230;28;20213;-68
2022/07/26 01:05:14;;;;;;;12.80;11.60;;;;;;;23.44;49.41;94715.59;5042552;28;20919;-69
2022/07/26 01:07:40;;;;;;;12.38;11.23;;;;;;;23.42;49.57;94720.41;5043100;28;20197;-68
2022/07/26 01:10:11;;;;;;;12.60;11.52;;;;;;;23.37;49.79;94715.75;5042415;28;20233;-68
2022/07/26 01:12:37;;;;;;;12.57;11.68;;;;;;;23.37;49.68;94714.94;5041241;28;20349;-68
2022/07/26 01:15:02;;;;;;;12.57;11.48;;;;;;;23.29;49.84;94716.94;5043181;28;20296;-67
2022/07/26 01:17:28;;;;;;;13.32;12.23;;;;;;;23.32;49.73;94718.34;5035078;28;20224;-68
2022/07/26 01:19:53;;;;;;;13.80;12.57;;;;;;;23.33;50.06;94722.63;5042036;28;20524;-67
2022/07/26 01:22:19;;;;;;;13.43;12.43;;;;;;;23.38;49.94;94721.94;5040839;28;20225;-69
2022/07/26 01:24:44;;;;;;;14.05;12.65;;;;;;;23.43;49.37;94716.66;5039845;28;20236;-68
2022/07/26 01:27:10;;;;;;;13.52;12.32;;;;;;;23.29;49.87;94718.81;5040922;28;20217;-68
2022/07/26 01:29:35;;;;;;;13.18;12.18;;;;;;;23.11;50.50;94715.25;5038559;28;20299;-67
2022/07/26 01:32:02;;;;;;;13.23;12.13;;;;;;;22.98;51.04;94709.31;5043489;28;20205;-68
2022/07/26 01:34:28;;;;;;;13.13;11.85;;;;;;;23.07;50.84;94710.59;5042434;28;20206;-68
2022/07/26 01:36:55;;;;;;;12.52;11.45;;;;;;;23.15;50.67;94712.06;5043640;28;20232;-68
2022/07/26 01:39:20;;;;;;;13.77;12.57;;;;;;;23.10;51.01;94708.25;5042691;28;20232;-68
2022/07/26 01:41:46;;;;;;;13.80;12.70;;;;;;;23.04;51.05;94705.69;5043911;28;20221;-68
2022/07/26 01:44:11;;;;;;;12.90;11.90;;;;;;;22.89;51.50;94706.16;5034497;28;20702;-68
2022/07/26 01:46:36;;;;;;;13.00;11.82;;;;;;;22.79;51.78;94704.09;5041119;28;20190;-68
2022/07/26 01:49:03;;;;;;;14.02;12.63;;;;;;;22.80;51.83;94700.38;5042251;28;20232;-67
2022/07/26 01:51:28;;;;;;;14.15;12.95;;;;;;;22.87;51.72;94709.06;5047184;28;20228;-68
2022/07/26 01:53:54;;;;;;;13.25;12.13;;;;;;;22.86;51.85;94712.00;5045742;28;20243;-69
2022/07/26 01:56:19;;;;;;;14.80;13.43;;;;;;;22.86;51.68;94712.81;5040595;28;20229;-68
2022/07/26 01:58:45;;;;;;;13.63;12.63;;;;;;;22.87;51.47;94717.13;5042653;28;20221;-68
2022/07/26 02:01:11;;;;;;;14.13;12.95;;;;;;;22.80;51.49;94711.09;5040443;28;20220;-68
2022/07/26 02:03:36;;;;;;;14.32;12.98;;;;;;;22.88;51.47;94709.88;5041535;28;20221;-68
2022/07/26 02:06:04;;;;;;;13.77;12.52;;;;;;;22.87;51.49;94706.41;5041831;28;20214;-68
2022/07/26 02:08:29;;;;;;;14.73;13.48;;;;;;;22.92;50.98;94720.97;5045875;28;20248;-69
2022/07/26 02:11:00;;;;;;;14.00;12.90;;;;;;;22.87;51.44;94721.66;5045530;28;20229;-68
2022/07/26 02:13:34;;;;;;;14.15;12.80;;;;;;;22.87;51.01;94714.44;5046639;28;20221;-69
2022/07/26 02:16:01;;;;;;;13.15;11.93;;;;;;;22.81;51.35;94715.38;5028660;28;20252;-69
2022/07/26 02:18:28;;;;;;;14.05;12.95;;;;;;;22.86;51.35;94718.19;5024161;28;20252;-68
2022/07/26 02:20:54;;;;;;;14.25;13.15;;;;;;;22.79;51.71;94722.03;5021012;28;20244;-67
2022/07/26 02:23:21;;;;;;;13.43;12.27;;;;;;;22.72;51.89;94727.53;5022781;28;20217;-68
2022/07/26 02:25:47;;;;;;;13.80;12.50;;;;;;;22.71;51.81;94731.25;5024196;28;20237;-68
2022/07/26 02:28:13;;;;;;;13.35;12.20;;;;;;;22.52;52.49;94719.03;5025616;28;20260;-67
2022/07/26 02:30:39;;;;;;;15.05;13.75;;;;;;;22.53;52.76;94720.66;5019598;28;20223;-68
2022/07/26 02:33:05;;;;;;;14.65;13.30;;;;;;;22.52;52.41;94724.38;5020063;28;20604;-68
2022/07/26 02:35:30;;;;;;;14.27;13.05;;;;;;;22.49;52.51;94724.84;5021259;28;20629;-67
2022/07/26 02:38:07;;;;;;;14.68;13.48;;;;;;;22.59;52.18;94720.53;5023022;28;20202;-68
2022/07/26 02:40:34;;;;;;;14.70;13.38;;;;;;;22.53;52.38;94723.31;5022478;28;20288;-69
2022/07/26 02:42:59;;;;;;;14.57;13.30;;;;;;;22.41;52.66;94724.13;5025954;28;20222;-67
2022/07/26 02:45:25;;;;;;;13.38;12.27;;;;;;;22.48;52.35;94723.19;5026005;28;20231;-68
2022/07/26 02:47:52;;;;;;;13.30;12.18;;;;;;;22.49;52.69;94727.53;5028364;28;20217;-67
2022/07/26 02:50:19;;;;;;;14.07;12.73;;;;;;;22.44;52.73;94730.91;5038555;28;20205;-68
2022/07/26 02:52:46;;;;;;;14.10;12.80;;;;;;;22.46;52.53;94731.50;5025347;28;20221;-68
2022/07/26 02:55:13;;;;;;;13.55;12.40;;;;;;;22.38;53.06;94729.97;5041715;28;20225;-68
2022/07/26 02:57:41;;;;;;;15.05;13.73;;;;;;;22.31;53.73;94723.09;5025044;28;20226;-67
2022/07/26 03:00:08;;;;;;;14.20;12.93;;;;;;;22.42;53.36;94728.44;5018862;28;20254;-68
2022/07/26 03:02:34;;;;;;;15.00;13.63;;;;;;;22.45;53.24;94724.47;5025978;28;20232;-67
2022/07/26 03:05:01;;;;;;;14.27;13.07;;;;;;;22.52;53.14;94732.41;5026551;28;20293;-67
2022/07/26 03:07:27;;;;;;;14.77;13.68;;;;;;;22.08;54.58;94724.66;5027283;28;20202;-68
2022/07/26 03:09:52;;;;;;;14.48;13.30;;;;;;;22.14;54.32;94736.31;5041464;28;20312;-67
2022/07/26 03:12:18;;;;;;;14.52;13.15;;;;;;;22.11;54.57;94726.88;5045973;28;20285;-68
2022/07/26 03:14:43;;;;;;;14.13;12.80;;;;;;;22.16;54.30;94729.69;5039062;28;20299;-67
2022/07/26 03:17:08;;;;;;;14.40;13.05;;;;;;;22.19;54.14;94731.94;5030082;28;20210;-68
2022/07/26 03:19:34;;;;;;;13.40;12.30;;;;;;;22.23;53.98;94733.09;5026648;28;20228;-68
2022/07/26 03:21:59;;;;;;;14.20;12.90;;;;;;;22.07;54.53;94735.59;5025151;28;20227;-68
2022/07/26 03:24:25;;;;;;;14.10;12.68;;;;;;;21.90;55.23;94733.59;5025484;28;20244;-68
2022/07/26 03:26:50;;;;;;;13.57;12.43;;;;;;;22.10;54.72;94743.97;5025563;28;20214;-63
2022/07/26 03:29:15;;;;;;;14.30;13.02;;;;;;;22.11;54.81;94731.44;5025125;28;20720;-63
2022/07/26 03:31:41;;;;;;;13.13;12.02;;;;;;;22.22;54.35;94746.72;5023485;28;20295;-63
2022/07/26 03:34:06;;;;;;;14.18;12.88;;;;;;;22.28;54.24;94747.66;5036775;28;20222;-63
2022/07/26 03:36:31;;;;;;;14.32;13.02;;;;;;;22.27;54.07;94741.50;5027522;28;20280;-64
2022/07/26 03:38:57;;;;;;;14.60;13.27;;;;;;;22.31;53.91;94745.31;5059241;28;20337;-63
2022/07/26 03:41:22;;;;;;;14.10;12.90;;;;;;;22.18;53.96;94742.84;5026344;28;20248;-63
2022/07/26 03:43:48;;;;;;;13.93;12.52;;;;;;;22.07;54.27;94743.63;5025406;28;20202;-63
2022/07/26 03:46:13;;;;;;;14.27;12.98;;;;;;;22.21;53.68;94740.56;5026387;28;20226;-63
2022/07/26 03:48:38;;;;;;;15.00;13.43;;;;;;;;;;5027142;28;20321;-64
2022/07/26 03:51:04;;;;;;;14.38;13.05;;;;;;;22.29;53.29;94736.69;5035559;28;20229;-63
2022/07/26 03:53:29;;;;;;;17.08;13.15;;;;;;;22.28;53.21;94740.44;5039786;28;20230;-63
2022/07/26 03:58:39;;;;;;;13.10;12.10;;;;;;;22.36;52.78;94734.75;5017906;28;20272;-63
2022/07/26 04:01:04;;;;;;;12.45;11.45;;;;;;;22.31;51.96;94734.63;5023988;28;20252;-65
2022/07/26 04:03:29;;;;;;;12.90;11.70;;;;;;;22.31;51.62;94734.63;5024928;28;20225;-64
2022/07/26 04:05:55;;;;;;;14.65;13.10;;;;;;;22.30;51.32;94727.63;5031665;28;20221;-64
2022/07/26 04:08:20;;;;;;;13.57;12.20;;;;;;;22.26;51.49;94736.34;5043103;28;20279;-63
2022/07/26 04:10:49;;;;;;;13.15;12.05;;;;;;;22.23;51.89;94732.28;5044048;28;20320;-64
2022/07/26 04:13:15;;;;;;;12.95;11.77;;;;;;;22.37;51.87;94733.72;5047613;28;20312;-63
2022/07/26 04:15:41;;;;;;;13.35;12.27;;;;;;;22.07;52.95;94731.06;5043028;28;20229;-64
2022/07/26 04:18:06;;;;;;;13.20;12.10;;;;;;;22.27;52.29;94727.28;5042226;28;20221;-64
2022/07/26 04:20:32;;;;;;;14.20;12.88;;;;;;;22.06;53.15;94723.28;5044288;28;20232;-63
2022/07/26 04:22:57;;;;;;;13.27;12.20;;;;;;;22.21;52.57;94718.28;5044182;28;20221;-64
2022/07/26 04:25:22;;;;;;;13.52;12.43;;;;;;;22.42;52.21;94725.75;5025708;28;20320;-64
2022/07/26 04:27:48;;;;;;;13.30;12.18;;;;;;;22.43;52.00;94724.72;5026735;28;20319;-63
2022/07/26 04:30:13;;;;;;;14.25;13.05;;;;;;;22.52;52.12;94725.19;5028571;28;20233;-64
2022/07/26 04:32:39;;;;;;;13.60;12.50;;;;;;;22.58;52.01;94723.44;5024327;28;20218;-62
2022/07/26 04:35:05;;;;;;;13.95;12.57;;;;;;;22.75;51.80;94727.06;5021498;28;20198;-63
2022/07/26 04:37:37;;;;;;;13.10;11.98;;;;;;;22.65;52.54;94714.25;5055148;28;20811;-64
2022/07/26 04:40:03;;;;;;;12.80;11.70;;;;;;;22.79;52.25;94719.34;5024999;28;20241;-65
2022/07/26 04:42:28;;;;;;;13.82;12.63;;;;;;;22.83;52.26;94728.56;5024670;28;20249;-63
2022/07/26 04:44:54;;;;;;;13.18;12.15;;;;;;;22.92;52.60;94719.09;5029800;28;20253;-63
2022/07/26 04:47:19;;;;;;;13.30;12.00;;;;;;;22.98;52.45;94723.53;5028539;28;20213;-63
2022/07/26 04:49:45;;;;;;;12.55;11.35;;;;;;;23.13;52.00;94715.00;5021425;28;20206;-63
2022/07/26 04:52:10;;;;;;;13.55;12.43;;;;;;;23.12;52.34;94718.72;5023376;28;20237;-63
2022/07/26 04:54:35;;;;;;;13.02;11.82;;;;;;;23.11;52.33;94725.16;5022305;28;20316;-63
2022/07/26 04:57:01;;;;;;;13.45;12.18;;;;;;;23.13;52.17;94725.75;5021256;28;20221;-63
2022/07/26 04:59:26;;;;;;;13.38;12.32;;;;;;;23.27;52.20;94727.09;5023023;28;20276;-63
2022/07/26 05:01:52;;;;;;;13.40;12.30;;;;;;;23.33;52.00;94723.47;5026822;28;20279;-63
2022/07/26 05:04:17;;;;;;;13.20;12.15;;;;;;;23.41;51.85;94724.94;5060723;28;20217;-63
2022/07/26 05:06:43;;;;;;;13.82;12.63;;;;;;;23.48;51.67;94720.25;5042344;28;20229;-63
2022/07/26 05:09:09;;;;;;;12.93;11.73;;;;;;;23.44;52.03;94721.81;5024651;28;20228;-63
2022/07/26 05:11:35;;;;;;;14.93;12.00;;;;;;;23.35;52.03;94723.22;5044868;28;20229;-63
2022/07/26 05:14:00;;;;;;;13.50;12.50;;;;;;;23.40;52.20;94720.66;5045219;28;20208;-63
2022/07/26 05:16:26;;;;;;;13.80;12.70;;;;;;;23.58;51.46;94716.97;5040688;28;20268;-64
2022/07/26 05:18:51;;;;;;;14.35;13.05;;;;;;;23.67;51.45;94709.34;5040204;28;20225;-63
2022/07/26 05:21:17;;;;;;;13.02;11.70;;;;;;;23.68;51.44;94713.63;5045508;28;20271;-63
2022/07/26 05:23:43;;;;;;;13.52;12.43;;;;;;;23.59;51.71;94715.91;5040628;28;20234;-64
2022/07/26 05:26:10;;;;;;;12.98;11.90;;;;;;;23.53;51.97;94708.81;5042230;28;20205;-63
2022/07/26 05:28:38;;;;;;;12.68;11.65;;;;;;;23.66;52.01;94716.56;5040127;28;20225;-64
2022/07/26 05:31:03;;;;;;;14.43;13.10;;;;;;;23.85;51.39;94716.41;5040704;28;20221;-64
2022/07/26 05:33:29;;;;;;;13.68;12.50;;;;;;;23.92;51.03;94717.03;5041191;28;20225;-63
2022/07/26 05:35:54;;;;;;;13.35;12.35;;;;;;;24.04;50.76;94714.31;5041940;28;20224;-63
2022/07/26 05:38:19;;;;;;;14.32;12.95;;;;;;;24.10;51.06;94713.31;5041513;28;20225;-63
2022/07/26 05:40:45;;;;;;;13.82;12.57;;;;;;;24.07;51.04;94709.25;5043807;28;20197;-62
2022/07/26 05:43:10;;;;;;;13.93;12.63;;;;;;;24.11;50.59;94714.94;5039965;28;20217;-63
2022/07/26 05:45:36;;;;;;;13.40;12.13;;;;;;;24.07;50.75;94709.25;5041071;28;20260;-64
2022/07/26 05:48:01;;;;;;;14.95;13.48;;;;;;;23.95;51.40;94705.81;5040664;28;20218;-63
2022/07/26 05:50:27;;;;;;;12.93;11.85;;;;;;;23.96;51.52;94696.72;5041221;28;20221;-62
2022/07/26 05:52:53;;;;;;;13.52;12.13;;;;;;;24.13;51.38;94692.16;5041824;28;20208;-64
2022/07/26 05:55:18;;;;;;;15.43;12.93;;;;;;;24.18;50.98;94694.13;5043500;28;20308;-63
2022/07/26 05:57:46;;;;;;;13.82;12.63;;;;;;;24.28;50.39;94698.84;5043207;28;20233;-64
2022/07/26 06:00:12;;;;;;;13.13;11.82;;;;;;;24.19;50.99;94685.81;5041158;28;20278;-64
2022/07/26 06:02:39;;;;;;;13.45;12.30;;;;;;;24.52;49.92;94700.31;5049320;28;20217;-64
2022/07/26 06:05:05;;;;;;;13.88;12.60;;;;;;;24.53;50.00;94693.88;5036186;28;20316;-67
2022/07/26 06:07:31;;;;;;;14.10;13.00;;;;;;;24.51;50.52;94687.94;5035681;28;20273;-63
2022/07/26 06:09:56;;;;;;;14.30;13.00;;;;;;;24.58;50.00;94693.94;5039543;28;20363;-65
2022/07/26 06:12:22;;;;;;;14.27;12.68;;;;;;;24.45;50.22;94686.22;5042646;28;20232;-61
2022/07/26 06:14:47;;;;;;;15.00;13.60;;;;;;;24.45;49.87;94682.72;5029389;28;20213;-64
2022/07/26 06:17:12;;;;;;;14.48;13.32;;;;;;;24.31;50.37;94677.66;5021795;28;20206;-64
2022/07/26 06:19:38;;;;;;;14.82;13.52;;;;;;;24.45;50.04;94683.53;5014751;28;20198;-63
2022/07/26 06:22:03;;;;;;;14.98;13.73;;;;;;;24.58;49.91;94677.81;5033751;28;20265;-63
2022/07/26 06:24:29;;;;;;;15.27;14.07;;;;;;;24.63;49.86;94677.91;5024342;28;20224;-63
2022/07/26 06:26:55;;;;;;;15.70;14.20;;;;;;;24.65;50.06;94675.78;5016773;28;20510;-62
2022/07/26 06:29:21;;;;;;;16.60;15.30;;;;;;;24.79;50.20;94673.53;5018036;28;20322;-61
2022/07/26 06:31:47;;;;;;;16.15;14.73;;;;;;;24.82;50.10;94675.72;5020724;28;20254;-64
2022/07/26 06:34:13;;;;;;;16.35;14.88;;;;;;;24.93;49.50;94679.38;5019048;28;20308;-64
2022/07/26 06:36:38;;;;;;;15.13;13.93;;;;;;;24.93;49.51;94675.88;5028527;28;20216;-63
2022/07/26 06:39:03;;;;;;;16.00;14.48;;;;;;;25.04;49.35;94680.31;5029405;28;20267;-64
2022/07/26 06:41:29;;;;;;;16.15;14.50;;;;;;;25.08;49.50;94676.88;5020622;28;20617;-62
2022/07/26 06:43:54;;;;;;;15.20;13.73;;;;;;;25.00;48.79;94673.81;5021686;28;20328;-64
2022/07/26 06:46:20;;;;;;;14.70;13.38;;;;;;;25.00;48.69;94674.63;5020392;28;20225;-62
2022/07/26 06:48:47;;;;;;;15.40;14.02;;;;;;;25.02;49.09;94677.03;5026509;28;20218;-63
2022/07/26 06:51:12;;;;;;;16.30;14.82;;;;;;;24.95;48.68;94682.63;5027644;28;20313;-62
2022/07/26 06:53:38;;;;;;;15.38;13.88;;;;;;;25.08;48.81;94671.50;5019342;28;20377;-66
2022/07/26 06:56:04;;;;;;;14.95;13.68;;;;;;;25.11;48.72;94674.75;5023603;28;20241;-61
2022/07/26 06:58:29;;;;;;;15.00;13.70;;;;;;;25.14;48.35;94675.06;5020308;28;20370;-66
2022/07/26 07:00:54;;;;;;;14.30;13.18;;;;;;;25.26;49.11;94673.09;5025369;28;20221;-66
2022/07/26 07:03:20;;;;;;;15.02;13.82;;;;;;;25.34;47.89;94681.75;5037416;28;20594;-67
2022/07/26 07:05:46;;;;;;;15.55;14.15;;;;;;;25.45;47.54;94676.25;5049297;28;20283;-66
2022/07/26 07:08:12;;;;;;;15.65;14.00;;;;;;;25.39;47.35;94673.75;5044166;28;20215;-67
2022/07/26 07:10:38;;;;;;;14.68;13.20;;;;;;;25.29;47.59;94672.56;5042952;28;20525;-62
2022/07/26 07:13:03;;;;;;;15.18;13.90;;;;;;;25.32;47.38;94675.84;5039389;28;20237;-63
2022/07/26 07:15:29;;;;;;;15.98;14.25;;;;;;;25.26;48.04;94675.78;5043771;28;20229;-63
2022/07/26 07:17:54;;;;;;;15.40;14.00;;;;;;;25.25;47.82;94667.94;5042960;28;20221;-63
2022/07/26 07:20:20;;;;;;;14.80;13.50;;;;;;;25.40;47.93;94676.19;5039935;28;20760;-63
2022/07/26 07:22:45;;;;;;;15.15;13.88;;;;;;;25.55;47.35;94672.03;5043722;28;20196;-64
2022/07/26 07:25:11;;;;;;;14.85;13.63;;;;;;;25.46;47.03;94675.16;5036617;28;20217;-63
2022/07/26 07:27:37;;;;;;;15.85;14.43;;;;;;;25.52;47.39;94673.34;5043714;28;20265;-63
2022/07/26 07:30:04;;;;;;;15.75;14.45;;;;;;;25.48;47.26;94673.03;5043878;28;20316;-62
2022/07/26 07:32:30;;;;;;;14.57;13.27;;;;;;;25.58;46.66;94674.22;5044057;28;20221;-63
2022/07/26 07:34:55;;;;;;;14.98;13.55;;;;;;;25.45;46.46;94672.75;5043955;28;20201;-63
2022/07/26 07:37:21;;;;;;;15.52;13.32;;;;;;;25.57;46.42;94672.59;5046670;28;20213;-63
2022/07/26 07:39:47;;;;;;;14.57;13.27;;;;;;;25.70;45.00;94673.00;5046788;28;20225;-62
2022/07/26 07:42:12;;;;;;;14.55;13.35;;;;;;;25.83;45.37;94670.97;5049461;28;20224;-62
2022/07/26 07:44:38;;;;;;;13.75;12.50;;;;;;;25.85;45.66;94669.69;5043251;28;20229;-65
2022/07/26 07:47:03;;;;;;;14.82;13.73;;;;;;;25.94;44.00;94667.31;5042249;28;20206;-62
2022/07/26 07:49:29;;;;;;;14.23;13.02;;;;;;;25.95;44.27;94661.69;5042541;28;20201;-64
2022/07/26 07:51:54;;;;;;;15.90;14.25;;;;;;;25.99;44.50;94663.88;5044086;28;20221;-63
2022/07/26 07:54:20;;;;;;;14.60;13.20;;;;;;;26.08;44.72;94656.91;5041266;28;20226;-65
2022/07/26 07:56:45;;;;;;;14.93;13.82;;;;;;;26.09;44.14;94653.16;5049535;28;20217;-62
2022/07/26 07:59:11;;;;;;;14.85;13.52;;;;;;;26.12;44.34;94658.84;5049800;28;20198;-63
2022/07/26 08:01:36;;;;;;;15.45;14.30;;;;;;;26.09;44.40;94645.91;5046566;28;20251;-62
2022/07/26 08:04:02;;;;;;;14.65;13.05;;;;;;;26.22;45.54;94658.09;5045725;28;20222;-61
2022/07/26 08:06:33;;;;;;;14.75;13.65;;;;;;;26.16;44.94;94651.06;5060012;28;20229;-62
2022/07/26 08:08:59;;;;;;;14.43;13.23;;;;;;;26.28;45.37;94648.19;5045189;28;20228;-62
2022/07/26 08:11:24;;;;;;;13.57;12.57;;;;;;;26.31;44.84;94656.56;5044688;28;20228;-63
2022/07/26 08:13:49;;;;;;;15.50;14.23;;;;;;;26.46;44.12;94647.75;5050323;28;20202;-63
2022/07/26 08:16:15;;;;;;;14.82;13.45;;;;;;;26.54;43.74;94649.19;5044259;28;20218;-62
2022/07/26 08:18:40;;;;;;;15.25;13.93;;;;;;;26.56;42.96;94647.03;5036044;28;20217;-62
2022/07/26 08:21:06;;;;;;;15.20;13.98;;;;;;;26.61;43.39;94649.78;5044694;28;20222;-61
2022/07/26 08:23:31;;;;;;;14.98;13.68;;;;;;;26.68;42.61;94644.13;5042593;28;20275;-62
2022/07/26 08:25:57;;;;;;;15.10;14.00;;;;;;;26.69;42.45;94638.50;5042435;28;20202;-62
2022/07/26 08:28:24;;;;;;;15.10;13.80;;;;;;;26.71;42.23;94630.94;5043348;28;20446;-64
2022/07/26 08:30:49;;;;;;;14.63;13.20;;;;;;;26.81;42.25;94633.72;5047392;28;20225;-61
2022/07/26 08:33:15;;;;;;;15.98;14.40;;;;;;;26.86;42.16;94632.91;5047576;28;20225;-63
2022/07/26 08:35:40;;;;;;;15.13;13.68;;;;;;;26.86;42.42;94630.19;5040501;28;20646;-62
2022/07/26 08:38:06;;;;;;;14.02;12.82;;;;;;;26.85;42.42;94631.28;5042855;28;20223;-63
2022/07/26 08:40:32;;;;;;;14.93;13.63;;;;;;;26.91;42.47;94626.72;5044043;28;20197;-64
2022/07/26 08:42:58;;;;;;;14.93;13.73;;;;;;;27.03;42.29;94635.41;5043378;28;20225;-61
2022/07/26 08:45:28;;;;;;;15.77;14.25;;;;;;;27.04;40.69;94628.94;5059642;28;20231;-60
2022/07/26 08:47:54;;;;;;;14.80;13.52;;;;;;;27.15;40.77;94629.78;5051232;28;20293;-61
2022/07/26 08:50:20;;;;;;;16.17;14.23;;;;;;;27.09;41.07;94628.16;5043736;28;20233;-61
2022/07/26 08:52:46;;;;;;;15.48;14.07;;;;;;;27.07;41.18;94628.41;5047403;28;20367;-65
2022/07/26 08:55:17;;;;;;;15.63;14.32;;;;;;;27.19;41.15;94628.22;5044510;28;20280;-62
2022/07/26 08:57:42;;;;;;;15.23;14.00;;;;;;;27.25;40.78;94624.44;5041102;28;20821;-63
2022/07/26 09:00:18;;;;;;;15.20;13.88;;;;;;;27.33;40.91;94633.91;5040754;28;20221;-61
2022/07/26 09:02:44;;;;;;;16.52;15.23;;;;;;;27.41;39.99;94633.41;5038735;28;20723;-63
2022/07/26 09:05:10;;;;;;;14.77;13.50;;;;;;;27.39;39.49;94632.84;5043726;28;20258;-63
2022/07/26 09:07:38;;;;;;;14.63;13.45;;;;;;;27.44;39.57;94624.75;5044247;28;20205;-64
2022/07/26 09:10:07;;;;;;;13.95;12.73;;;;;;;27.51;38.47;94619.94;5042535;28;20222;-62
2022/07/26 09:12:33;;;;;;;14.63;13.32;;;;;;;27.56;38.13;94624.50;5042489;28;20229;-62
2022/07/26 09:15:00;;;;;;;14.15;13.02;;;;;;;27.62;39.41;94623.44;5042628;28;20286;-61
2022/07/26 09:17:39;;;;;;;14.85;13.55;;;;;;;27.67;38.71;94624.28;5042890;28;20719;-63
2022/07/26 09:20:19;;;;;;;15.30;14.00;;;;;;;27.69;38.79;94622.13;5040301;28;20254;-63
2022/07/26 09:23:06;;;;;;;14.20;13.07;;;;;;;27.83;37.48;94616.22;5045006;28;20201;-63
2022/07/26 09:25:40;;;;;;;14.55;13.43;;;;;;;27.82;37.29;94614.56;5058878;28;20229;-63
2022/07/26 09:28:22;;;;;;;14.52;13.38;;;;;;;27.96;37.61;94604.88;5042901;28;20235;-63
2022/07/26 09:31:01;;;;;;;14.02;12.70;;;;;;;28.14;36.48;94601.59;5034369;28;20257;-63
2022/07/26 09:33:45;;;;;;;13.57;12.48;;;;;;;28.34;35.16;94602.66;5039379;28;20228;-63
2022/07/26 09:36:11;;;;;;;13.98;12.88;;;;;;;28.47;34.87;94604.84;5037496;28;20315;-62
2022/07/26 09:38:46;;;;;;;13.65;12.35;;;;;;;28.53;34.11;94598.31;5042167;28;20233;-63
2022/07/26 09:41:22;;;;;;;13.55;12.48;;;;;;;28.60;35.07;94603.44;5045446;28;20205;-62
2022/07/26 09:43:50;;;;;;;13.25;12.25;;;;;;;28.72;34.17;94600.44;5038658;28;20210;-62
2022/07/26 09:46:16;;;;;;;13.73;12.57;;;;;;;28.82;33.89;94592.28;5041574;28;20232;-62
2022/07/26 09:48:42;;;;;;;12.45;11.55;;;;;;;29.01;33.86;94595.97;5043049;28;20226;-63
2022/07/26 09:51:09;;;;;;;12.98;11.88;;;;;;;29.24;34.49;94597.25;5042767;28;20311;-63
2022/07/26 09:53:45;;;;;;;12.82;11.68;;;;;;;29.33;32.21;94596.69;5056723;28;20228;-63
2022/07/26 09:56:12;;;;;;;13.57;12.18;;;;;;;29.36;32.71;94593.41;5035740;28;20300;-63
2022/07/26 09:58:38;;;;;;;12.38;11.45;;;;;;;29.37;32.40;94576.06;5040188;28;20327;-63
2022/07/26 10:01:05;;;;;;;12.57;11.57;;;;;;;29.39;32.31;94584.72;5043230;28;20432;-63
2022/07/26 10:03:31;;;;;;;13.02;11.68;;;;;;;29.51;33.11;94574.34;5040448;28;20283;-63
2022/07/26 10:06:01;;;;;;;12.00;11.10;;;;;;;29.43;33.93;94583.88;5037348;28;20289;-63
2022/07/26 10:08:28;;;;;;;12.18;11.23;;;;;;;29.59;31.38;94583.75;5039083;28;20213;-62
2022/07/26 10:11:14;;;;;;;12.57;11.43;;;;;;;29.51;32.10;94578.94;5041202;28;20255;-63
2022/07/26 10:13:40;;;;;;;12.68;11.48;;;;;;;29.59;32.41;94575.63;5036835;28;20233;-62
2022/07/26 10:16:05;;;;;;;11.30;10.50;;;;;;;29.79;31.64;94569.28;5045713;28;20283;-62
2022/07/26 10:18:37;;;;;;;12.90;11.70;;;;;;;29.90;31.31;94568.91;5044795;28;20241;-62
2022/07/26 10:21:14;;;;;;;11.90;10.77;;;;;;;30.03;30.61;94563.94;5045324;28;20221;-63
2022/07/26 10:23:42;;;;;;;11.88;10.98;;;;;;;30.25;30.17;94568.91;5042815;28;20225;-64
2022/07/26 10:26:10;;;;;;;11.95;10.63;;;;;;;30.17;30.86;94558.66;5057018;28;20201;-62
2022/07/26 10:28:37;;;;;;;12.65;11.55;;;;;;;30.33;30.85;94557.44;5036583;28;20241;-62
2022/07/26 10:31:24;;;;;;;12.10;11.20;;;;;;;30.32;30.17;94551.22;5060007;28;20235;-64
2022/07/26 10:33:51;;;;;;;12.02;11.13;;;;;;;30.45;29.64;94559.78;5041222;28;20253;-63
2022/07/26 10:36:24;;;;;;;13.10;11.82;;;;;;;30.48;28.84;94549.13;5031771;28;20222;-64
2022/07/26 10:39:07;;;;;;;12.05;10.85;;;;;;;30.63;29.07;94550.84;5041206;28;20310;-62
2022/07/26 10:41:36;;;;;;;12.57;11.60;;;;;;;30.71;28.98;94561.09;5029337;28;20275;-61
2022/07/26 10:44:17;;;;;;;12.35;11.45;;;;;;;30.86;28.76;94545.75;5026533;28;20217;-61
2022/07/26 10:47:07;;;;;;;12.20;11.30;;;;;;;30.99;28.39;94547.75;5025542;28;20201;-64
2022/07/26 10:49:35;;;;;;;12.77;11.73;;;;;;;31.06;27.15;94542.78;5056808;28;20218;-62
2022/07/26 10:52:13;;;;;;;12.98;11.88;;;;;;;31.10;28.20;94541.06;5032745;28;20776;-62
2022/07/26 10:55:03;;;;;;;13.90;12.73;;;;;;;31.18;27.68;94539.63;5031009;28;20305;-61
2022/07/26 10:57:37;;;;;;;11.43;10.45;;;;;;;31.12;26.57;94535.38;5028531;28;20226;-63
2022/07/26 11:00:08;;;;;;;11.25;10.25;;;;;;;31.32;25.63;94529.63;5024014;28;20225;-63
2022/07/26 11:02:34;;;;;;;10.50;9.70;;;;;;;31.34;25.73;94529.34;5026679;28;20222;-63
2022/07/26 11:05:02;;;;;;;10.32;9.63;;;;;;;31.50;25.54;94510.94;5025686;28;20224;-64
2022/07/26 11:07:29;;;;;;;10.52;9.82;;;;;;;31.51;25.35;94520.69;5044399;28;20201;-63
2022/07/26 11:09:59;;;;;;;10.07;9.18;;;;;;;31.44;24.84;94512.91;5027510;28;20230;-63
2022/07/26 11:12:24;;;;;;;10.45;9.60;;;;;;;31.45;25.66;94517.25;5029762;28;20229;-64
2022/07/26 11:14:50;;;;;;;10.60;9.70;;;;;;;31.52;24.89;94514.16;5025574;28;20223;-64
2022/07/26 11:17:25;;;;;;;10.10;9.25;;;;;;;31.53;24.82;94502.19;5025725;28;20198;-66
2022/07/26 11:19:51;;;;;;;10.07;9.40;;;;;;;31.54;25.17;94499.19;5024043;28;20210;-64